Time;durP1;ratioP1;P1;durP2;ratioP2;P2;SDS_P1;SDS_P2;PMS_P1;PMS_P2;Temp;Humidity;BMP_temperature;BMP_pressure;BME280_temperature;BME280_humidity;BME280_pressure;Samples;Min_cycle;Max_cycle;Signal;HPM_P1;HPM_P2
2023/08/28 00:00:46;;;;;;;23.30;11.70;;;;;;;20.50;100.00;100287.00;105703;1260;64710;-51
2023/08/28 00:03:13;;;;;;;21.10;11.40;;;;;;;20.53;100.00;100287.29;105650;1257;72536;-53
2023/08/28 00:05:40;;;;;;;21.50;12.20;;;;;;;20.56;100.00;100286.29;105615;1258;61822;-52
2023/08/28 00:08:07;;;;;;;21.70;11.50;;;;;;;20.59;100.00;100283.84;105575;1257;60251;-52
2023/08/28 00:10:37;;;;;;;24.90;11.40;;;;;;;20.65;100.00;100287.13;105610;1257;71680;-52
2023/08/28 00:13:03;;;;;;;22.90;10.80;;;;;;;20.68;100.00;100285.84;105643;1260;64717;-52
2023/08/28 00:15:31;;;;;;;26.60;11.90;;;;;;;20.71;100.00;100285.89;105507;1260;71665;-52
2023/08/28 00:17:58;;;;;;;19.30;10.00;;;;;;;20.71;100.00;100285.67;105600;1259;61771;-53
2023/08/28 00:20:25;;;;;;;17.80;10.30;;;;;;;20.73;100.00;100280.34;105611;1257;61534;-53
2023/08/28 00:22:52;;;;;;;20.70;10.60;;;;;;;20.75;100.00;100283.01;105435;1258;73054;-53
2023/08/28 00:25:19;;;;;;;16.10;9.90;;;;;;;20.77;100.00;100284.80;105634;1260;64596;-52
2023/08/28 00:27:46;;;;;;;15.20;10.00;;;;;;;20.77;100.00;100281.48;105617;1256;72562;-50
2023/08/28 00:30:13;;;;;;;20.90;10.80;;;;;;;20.76;100.00;100280.83;105614;1260;62013;-52
2023/08/28 00:32:40;;;;;;;13.90;10.60;;;;;;;20.74;100.00;100280.77;105641;1257;60376;-51
2023/08/28 00:35:07;;;;;;;14.90;9.40;;;;;;;20.72;100.00;100284.59;105665;1260;72933;-51
2023/08/28 00:37:35;;;;;;;17.70;9.50;;;;;;;20.70;100.00;100284.47;105662;1258;64729;-51
2023/08/28 00:40:03;;;;;;;18.70;9.80;;;;;;;20.71;100.00;100282.71;105618;1254;72533;-52
2023/08/28 00:42:31;;;;;;;14.20;10.30;;;;;;;20.73;100.00;100282.79;105680;1260;61911;-54
2023/08/28 00:44:58;;;;;;;15.30;9.50;;;;;;;20.74;100.00;100284.60;105598;1260;59711;-56
2023/08/28 00:47:25;;;;;;;13.70;9.60;;;;;;;20.77;100.00;100284.57;105669;1256;73848;-53
2023/08/28 00:49:55;;;;;;;19.80;9.70;;;;;;;20.81;100.00;100282.27;105606;1257;64548;-50
2023/08/28 00:52:23;;;;;;;15.20;10.10;;;;;;;20.81;100.00;100277.00;105599;1257;72533;-53
2023/08/28 00:54:49;;;;;;;19.50;10.50;;;;;;;20.79;100.00;100276.42;105655;1259;61964;-52
2023/08/28 00:57:16;;;;;;;14.90;10.60;;;;;;;20.76;100.00;100279.43;105592;1256;60163;-50
2023/08/28 00:59:45;;;;;;;19.50;10.40;;;;;;;20.72;100.00;100278.30;105501;1255;71912;-52
2023/08/28 01:02:12;;;;;;;20.70;10.20;;;;;;;20.65;100.00;100278.48;105627;1258;64464;-52
2023/08/28 01:04:39;;;;;;;18.80;10.00;;;;;;;20.62;100.00;100280.64;105671;1257;72844;-51
2023/08/28 01:07:26;;;;;;;17.70;10.20;;;;;;;20.58;100.00;100279.98;105616;1260;61874;-53
2023/08/28 01:10:15;;;;;;;15.00;9.70;;;;;;;20.56;100.00;100282.22;105669;1257;60171;-52
2023/08/28 01:12:51;;;;;;;16.00;10.10;;;;;;;20.55;100.00;100281.94;105610;1257;71937;-52
2023/08/28 01:15:22;;;;;;;23.10;10.00;;;;;;;20.52;100.00;100283.85;105634;1258;64491;-51
2023/08/28 01:17:54;;;;;;;21.10;9.80;;;;;;;20.51;100.00;100285.00;105651;1257;72449;-52
2023/08/28 01:20:24;;;;;;;12.00;8.80;;;;;;;20.53;100.00;100287.69;105601;1256;61973;-51
2023/08/28 01:22:57;;;;;;;21.20;8.90;;;;;;;20.53;100.00;100290.85;105651;1257;60352;-52
2023/08/28 01:25:25;;;;;;;21.40;8.00;;;;;;;20.51;100.00;100286.77;105641;1260;73099;-52
2023/08/28 01:27:52;;;;;;;15.80;8.70;;;;;;;20.50;100.00;100284.05;105651;1258;64726;-51
2023/08/28 01:30:20;;;;;;;20.60;8.90;;;;;;;20.49;100.00;100286.00;105592;1257;72451;-56
2023/08/28 01:32:48;;;;;;;22.30;9.00;;;;;;;20.50;100.00;100283.81;105496;1260;61876;-52
2023/08/28 01:35:24;;;;;;;12.70;9.10;;;;;;;20.52;100.00;100283.71;105561;1256;60285;-51
2023/08/28 01:38:22;;;;;;;13.00;9.30;;;;;;;20.52;100.00;100287.56;105638;1258;71477;-51
2023/08/28 01:41:09;;;;;;;22.40;8.60;;;;;;;20.51;100.00;100291.48;105674;1260;64760;-53
2023/08/28 01:43:38;;;;;;;11.20;8.30;;;;;;;20.52;100.00;100292.48;105600;1257;72639;-53
2023/08/28 01:46:05;;;;;;;22.30;8.50;;;;;;;20.49;100.00;100296.52;105600;1260;61620;-51
2023/08/28 01:48:36;;;;;;;10.00;7.70;;;;;;;20.46;100.00;100292.86;105583;1257;60281;-53
2023/08/28 01:51:03;;;;;;;15.80;7.80;;;;;;;20.46;100.00;100295.16;105656;1259;73038;-54
2023/08/28 01:53:30;;;;;;;11.80;7.90;;;;;;;20.48;100.00;100291.16;105630;1257;64590;-50
2023/08/28 01:56:09;;;;;;;20.40;7.90;;;;;;;20.49;100.00;100289.85;105724;1256;72614;-51
2023/08/28 01:58:37;;;;;;;13.30;8.50;;;;;;;20.50;100.00;100289.24;105608;1260;61751;-51
2023/08/28 02:01:04;;;;;;;13.10;8.40;;;;;;;20.51;100.00;100287.27;105624;1255;60192;-53
2023/08/28 02:03:33;;;;;;;23.70;8.00;;;;;;;20.52;100.00;100290.35;105640;1258;72967;-51
2023/08/28 02:06:00;;;;;;;11.70;7.80;;;;;;;20.53;100.00;100291.14;105602;1258;64534;-53
2023/08/28 02:08:27;;;;;;;14.40;7.60;;;;;;;20.55;100.00;100297.39;105619;1257;72664;-53
2023/08/28 02:10:53;;;;;;;18.50;8.00;;;;;;;20.56;100.00;100290.17;105642;1259;60860;-52
2023/08/28 02:13:22;;;;;;;13.10;7.60;;;;;;;20.55;100.00;100291.40;105670;1256;60280;-52
2023/08/28 02:15:49;;;;;;;11.70;7.90;;;;;;;20.53;100.00;100294.01;105624;1257;72938;-51
2023/08/28 02:18:16;;;;;;;14.20;8.80;;;;;;;20.50;100.00;100293.14;105567;1260;63742;-51
2023/08/28 02:20:44;;;;;;;14.50;8.50;;;;;;;20.44;100.00;100295.27;105665;1257;73108;-50
2023/08/28 02:23:11;;;;;;;12.90;8.30;;;;;;;20.36;100.00;100293.11;105617;1257;61943;-53
2023/08/28 02:25:43;;;;;;;13.90;8.40;;;;;;;20.29;100.00;100300.02;105627;1256;59551;-52
2023/08/28 02:28:10;;;;;;;14.00;7.50;;;;;;;20.21;100.00;100299.09;105655;1256;72055;-52
2023/08/28 02:30:38;;;;;;;9.30;7.50;;;;;;;20.14;100.00;100302.32;105594;1257;64796;-53
2023/08/28 02:33:05;;;;;;;11.00;7.50;;;;;;;20.08;100.00;100305.52;105594;1256;72308;-54
2023/08/28 02:35:32;;;;;;;8.20;7.40;;;;;;;20.04;100.00;100306.63;105626;1259;61033;-52
2023/08/28 02:37:59;;;;;;;9.90;7.00;;;;;;;20.00;100.00;100306.34;105580;1257;60086;-52
2023/08/28 02:40:26;;;;;;;12.20;7.70;;;;;;;19.96;100.00;100304.11;105656;1256;73000;-53
2023/08/28 02:42:54;;;;;;;13.60;7.70;;;;;;;19.92;100.00;100304.55;105613;1259;65150;-55
2023/08/28 02:45:21;;;;;;;12.50;7.50;;;;;;;19.87;100.00;100312.68;105722;1257;72640;-55
2023/08/28 02:47:51;;;;;;;13.90;8.50;;;;;;;19.81;100.00;100323.84;105622;1257;62102;-52
2023/08/28 02:50:18;;;;;;;15.50;8.30;;;;;;;19.77;100.00;100326.41;105616;1257;59612;-51
2023/08/28 02:52:45;;;;;;;15.70;8.50;;;;;;;19.71;100.00;100324.30;105721;1255;71966;-50
2023/08/28 02:55:12;;;;;;;14.60;8.10;;;;;;;19.67;100.00;100331.17;105666;1256;64634;-50
2023/08/28 02:57:39;;;;;;;17.40;9.30;;;;;;;19.62;100.00;100339.00;105643;1257;72296;-51
2023/08/28 03:00:07;;;;;;;18.10;9.90;;;;;;;19.57;100.00;100335.94;105615;1261;61790;-51
2023/08/28 03:02:34;;;;;;;18.70;9.90;;;;;;;19.52;100.00;100330.79;105643;1255;60313;-52
2023/08/28 03:05:01;;;;;;;12.90;8.60;;;;;;;19.48;100.00;100332.44;105566;1256;72811;-51
2023/08/28 03:07:28;;;;;;;13.10;9.40;;;;;;;19.45;100.00;100330.84;105602;1259;63747;-53
2023/08/28 03:09:55;;;;;;;18.30;9.60;;;;;;;19.42;100.00;100333.15;105576;1256;72631;-51
2023/08/28 03:12:23;;;;;;;16.90;9.60;;;;;;;19.41;100.00;100330.25;105594;1260;62002;-52
2023/08/28 03:14:50;;;;;;;18.00;9.40;;;;;;;19.40;100.00;100330.45;105650;1257;60399;-54
2023/08/28 03:17:18;;;;;;;14.40;9.50;;;;;;;19.39;100.00;100337.84;105571;1260;73002;-53
2023/08/28 03:19:45;;;;;;;14.10;9.40;;;;;;;19.40;100.00;100333.40;105632;1258;64439;-53
2023/08/28 03:22:12;;;;;;;13.80;8.80;;;;;;;19.42;100.00;100336.44;105580;1258;72645;-54
2023/08/28 03:24:39;;;;;;;15.30;9.20;;;;;;;19.45;100.00;100337.00;105560;1260;61719;-51
2023/08/28 03:27:06;;;;;;;12.40;9.60;;;;;;;19.48;100.00;100340.14;105570;1256;60323;-52
2023/08/28 03:29:33;;;;;;;18.20;9.00;;;;;;;19.53;100.00;100340.00;105614;1255;73054;-54
2023/08/28 03:32:00;;;;;;;13.20;8.80;;;;;;;19.59;100.00;100337.42;105451;1259;64630;-52
2023/08/28 03:34:27;;;;;;;13.20;9.10;;;;;;;19.63;100.00;100335.41;105574;1255;72435;-52
2023/08/28 03:36:54;;;;;;;13.30;9.20;;;;;;;19.66;100.00;100333.64;105577;1260;61935;-51
2023/08/28 03:39:21;;;;;;;16.90;9.20;;;;;;;19.70;100.00;100331.37;105563;1256;60394;-51
2023/08/28 03:41:47;;;;;;;15.70;9.70;;;;;;;19.76;100.00;100336.09;105689;1257;73147;-53
2023/08/28 03:44:14;;;;;;;14.90;9.30;;;;;;;19.82;100.00;100340.96;105643;1259;64893;-50
2023/08/28 03:46:41;;;;;;;15.20;9.40;;;;;;;19.88;100.00;100339.21;105654;1257;72598;-51
2023/08/28 03:49:08;;;;;;;17.10;9.60;;;;;;;19.91;100.00;100340.80;105623;1260;61996;-51
2023/08/28 03:51:35;;;;;;;22.00;9.70;;;;;;;19.96;100.00;100331.95;105586;1256;60514;-51
2023/08/28 03:54:02;;;;;;;11.60;9.10;;;;;;;20.02;100.00;100331.79;105678;1256;73829;-51
2023/08/28 03:56:32;;;;;;;16.60;8.50;;;;;;;20.08;100.00;100335.61;105615;1260;64729;-52
2023/08/28 03:59:00;;;;;;;11.20;8.10;;;;;;;20.15;100.00;100336.27;105629;1257;72694;-53
2023/08/28 04:01:28;;;;;;;14.50;9.00;;;;;;;20.19;100.00;100336.89;105657;1259;61786;-53
2023/08/28 04:03:55;;;;;;;20.20;9.20;;;;;;;20.22;100.00;100338.98;105675;1257;60450;-53
2023/08/28 04:06:22;;;;;;;10.60;8.80;;;;;;;20.29;100.00;100339.64;105547;1256;73647;-52
2023/08/28 04:08:49;;;;;;;12.50;8.90;;;;;;;20.37;100.00;100336.86;105569;1260;64556;-52
2023/08/28 04:11:16;;;;;;;13.80;8.90;;;;;;;20.46;100.00;100337.23;105597;1257;72661;-53
2023/08/28 04:13:43;;;;;;;11.90;9.00;;;;;;;20.57;100.00;100338.83;105549;1260;61916;-52
2023/08/28 04:16:09;;;;;;;12.60;8.50;;;;;;;20.68;100.00;100338.12;105584;1257;60536;-51
2023/08/28 04:18:36;;;;;;;13.60;8.20;;;;;;;20.82;100.00;100340.61;105699;1256;73846;-52
2023/08/28 04:21:04;;;;;;;14.50;8.40;;;;;;;20.96;100.00;100345.12;105627;1258;63668;-51
2023/08/28 04:23:31;;;;;;;14.90;7.80;;;;;;;21.13;100.00;100347.90;105668;1257;72621;-53
2023/08/28 04:26:00;;;;;;;10.70;8.10;;;;;;;21.30;100.00;100345.42;105637;1259;60536;-53
2023/08/28 04:28:27;;;;;;;17.70;8.10;;;;;;;21.47;100.00;100344.13;105605;1257;60571;-53
2023/08/28 04:30:54;;;;;;;12.80;7.60;;;;;;;21.65;100.00;100337.90;105632;1257;73698;-51
2023/08/28 04:33:21;;;;;;;8.70;7.00;;;;;;;21.82;100.00;100337.66;105611;1259;64655;-50
2023/08/28 04:35:48;;;;;;;13.90;7.60;;;;;;;21.93;100.00;100336.36;105571;1260;72452;-52
2023/08/28 04:38:15;;;;;;;12.00;6.70;;;;;;;22.02;100.00;100335.58;105699;1260;61843;-51
2023/08/28 04:40:42;;;;;;;9.30;7.10;;;;;;;22.15;100.00;100339.52;105584;1256;60405;-51
2023/08/28 04:43:09;;;;;;;11.70;7.90;;;;;;;22.28;100.00;100346.45;105616;1257;73979;-51
2023/08/28 04:45:36;;;;;;;13.70;7.80;;;;;;;22.47;100.00;100355.73;105617;1256;64683;-52
2023/08/28 04:48:04;;;;;;;14.60;7.90;;;;;;;22.67;100.00;100372.50;105638;1263;72656;-52
2023/08/28 04:50:31;;;;;;;17.70;7.70;;;;;;;22.88;100.00;100384.16;105693;1259;61914;-51
2023/08/28 04:52:58;;;;;;;12.30;7.30;;;;;;;23.11;100.00;100401.70;105632;1260;60350;-50
2023/08/28 04:55:26;;;;;;;17.30;6.90;;;;;;;23.35;100.00;100427.34;105636;1255;73923;-52
2023/08/28 04:57:53;;;;;;;10.40;7.10;;;;;;;23.56;100.00;100468.77;105608;1258;64494;-51
2023/08/28 05:00:20;;;;;;;15.70;7.40;;;;;;;23.77;100.00;100524.80;105683;1257;72585;-53
2023/08/28 05:02:47;;;;;;;23.50;7.20;;;;;;;24.01;100.00;100585.97;105616;1259;62003;-54
2023/08/28 05:05:14;;;;;;;16.30;8.20;;;;;;;24.24;100.00;100648.49;105690;1256;60561;-50
2023/08/28 05:07:42;;;;;;;17.20;7.30;;;;;;;24.46;100.00;100710.23;105602;1257;73933;-52
2023/08/28 05:10:09;;;;;;;16.70;8.10;;;;;;;24.65;100.00;100768.64;105628;1260;64493;-52
2023/08/28 05:12:37;;;;;;;10.60;8.10;;;;;;;24.82;100.00;100814.71;105616;1256;72600;-53
2023/08/28 05:15:05;;;;;;;11.40;8.10;;;;;;;24.99;100.00;100830.11;105637;1259;60751;-53
2023/08/28 05:17:32;;;;;;;17.60;9.80;;;;;;;25.15;100.00;100822.02;105614;1257;60540;-53
2023/08/28 05:19:59;;;;;;;22.30;9.00;;;;;;;25.30;100.00;100787.36;105547;1256;73890;-53
2023/08/28 05:22:27;;;;;;;14.80;8.50;;;;;;;25.42;100.00;100740.52;105605;1259;64903;-54
2023/08/28 05:24:54;;;;;;;15.30;9.60;;;;;;;25.46;100.00;100673.86;105661;1261;72989;-53
2023/08/28 05:27:21;;;;;;;12.80;8.70;;;;;;;25.47;100.00;100623.61;105599;1260;61055;-53
2023/08/28 05:29:50;;;;;;;11.70;8.70;;;;;;;25.48;100.00;100581.84;105462;1256;60498;-54
2023/08/28 05:32:17;;;;;;;12.90;8.80;;;;;;;25.46;100.00;100541.05;105220;1262;73563;-52
2023/08/28 05:34:44;;;;;;;10.60;8.50;;;;;;;25.39;100.00;100530.79;105625;1260;64527;-53
2023/08/28 05:37:11;;;;;;;14.90;8.50;;;;;;;25.26;100.00;100538.48;105599;1257;72686;-52
2023/08/28 05:39:38;;;;;;;12.20;8.40;;;;;;;25.13;100.00;100550.52;105599;1259;61870;-51
2023/08/28 05:42:05;;;;;;;11.40;8.50;;;;;;;25.02;100.00;100572.67;105566;1255;60540;-51
2023/08/28 05:44:32;;;;;;;15.90;8.60;;;;;;;24.98;100.00;100618.73;105504;1258;73853;-53
2023/08/28 05:47:00;;;;;;;9.50;7.60;;;;;;;24.95;100.00;100660.24;105625;1260;64525;-53
2023/08/28 05:49:27;;;;;;;17.90;8.50;;;;;;;24.93;100.00;100673.81;105570;1257;72657;-53
2023/08/28 05:51:54;;;;;;;22.70;8.60;;;;;;;24.95;100.00;100673.61;105643;1260;60377;-51
2023/08/28 05:54:20;;;;;;;26.90;9.50;;;;;;;25.00;100.00;100659.70;105638;1257;60616;-53
2023/08/28 05:56:47;;;;;;;24.30;8.20;;;;;;;25.05;100.00;100655.42;105634;1260;73811;-51
2023/08/28 05:59:14;;;;;;;48.20;10.80;;;;;;;25.08;100.00;100636.88;105617;1255;64543;-51
2023/08/28 06:01:41;;;;;;;47.50;9.90;;;;;;;25.09;100.00;100622.27;105615;1257;73092;-53
2023/08/28 06:04:08;;;;;;;44.10;9.20;;;;;;;25.12;100.00;100615.20;105567;1260;61858;-51
2023/08/28 06:06:37;;;;;;;35.70;9.70;;;;;;;25.15;100.00;100600.50;105617;1257;60821;-52
2023/08/28 06:09:04;;;;;;;36.00;9.40;;;;;;;25.20;100.00;100574.33;105580;1259;73700;-52
2023/08/28 06:11:32;;;;;;;45.60;10.30;;;;;;;25.26;100.00;100554.04;105627;1258;64679;-51
2023/08/28 06:13:59;;;;;;;29.10;9.60;;;;;;;25.34;100.00;100549.38;105586;1256;72554;-51
2023/08/28 06:16:26;;;;;;;40.90;9.10;;;;;;;25.43;100.00;100541.95;105634;1258;60482;-51
2023/08/28 06:18:53;;;;;;;42.80;9.90;;;;;;;25.52;100.00;100512.33;105706;1257;60453;-54
2023/08/28 06:21:20;;;;;;;39.70;10.60;;;;;;;25.57;100.00;100502.89;105618;1261;73883;-53
2023/08/28 06:23:47;;;;;;;40.50;9.00;;;;;;;25.65;100.00;100532.81;105615;1256;64620;-53
2023/08/28 06:26:14;;;;;;;39.40;9.70;;;;;;;25.73;100.00;100512.77;105652;1257;72480;-52
2023/08/28 06:28:41;;;;;;;42.30;9.90;;;;;;;25.85;100.00;100490.08;105661;1260;60627;-55
2023/08/28 06:31:08;;;;;;;40.50;11.10;;;;;;;25.97;100.00;100444.45;105667;1258;60431;-53
2023/08/28 06:33:35;;;;;;;22.70;11.00;;;;;;;26.09;100.00;100340.56;105654;1257;73909;-53
2023/08/28 06:36:02;;;;;;;24.20;8.90;;;;;;;26.23;100.00;100268.04;105610;1256;64669;-52
2023/08/28 06:38:31;;;;;;;21.10;9.60;;;;;;;26.34;100.00;100233.09;105654;1257;72507;-53
2023/08/28 06:40:58;;;;;;;33.10;9.30;;;;;;;26.44;100.00;100194.56;105683;1260;61898;-54
2023/08/28 06:43:25;;;;;;;15.30;9.30;;;;;;;26.55;100.00;100165.15;105650;1255;60448;-53
2023/08/28 06:45:52;;;;;;;17.10;8.80;;;;;;;26.67;100.00;100118.17;105655;1257;73817;-53
2023/08/28 06:48:19;;;;;;;25.60;8.20;;;;;;;26.81;100.00;100060.66;105617;1260;64638;-53
2023/08/28 06:50:46;;;;;;;17.50;8.90;;;;;;;26.92;100.00;99946.88;105672;1256;72630;-52
2023/08/28 06:53:13;;;;;;;22.80;8.80;;;;;;;27.04;100.00;99853.58;105659;1258;62068;-51
2023/08/28 06:55:40;;;;;;;10.90;8.20;;;;;;;27.18;100.00;99789.36;105684;1256;60469;-52
2023/08/28 06:58:07;;;;;;;20.20;9.30;;;;;;;27.32;100.00;99768.26;105637;1257;73852;-52
2023/08/28 07:00:34;;;;;;;18.90;9.00;;;;;;;27.43;100.00;99761.70;105627;1260;64592;-52
2023/08/28 07:03:02;;;;;;;31.80;8.70;;;;;;;27.56;100.00;99761.88;105971;1251;72645;-52
2023/08/28 07:05:30;;;;;;;13.60;8.40;;;;;;;27.71;100.00;99774.13;105986;1255;60415;-54
2023/08/28 07:07:57;;;;;;;14.70;8.30;;;;;;;27.87;100.00;99790.31;106052;1251;60415;-52
2023/08/28 07:10:24;;;;;;;34.10;9.00;;;;;;;27.99;100.00;99815.98;105995;1256;73766;-55
2023/08/28 07:12:52;;;;;;;29.40;9.30;;;;;;;28.11;100.00;99859.52;106058;1252;64697;-52
2023/08/28 07:15:18;;;;;;;21.10;8.10;;;;;;;28.27;100.00;99877.70;105962;1251;72758;-54
2023/08/28 07:17:46;;;;;;;19.50;8.40;;;;;;;28.44;100.00;99878.48;109618;1251;60419;-53
2023/08/28 07:20:12;;;;;;;32.30;9.20;;;;;;;28.56;100.00;99898.39;109719;1251;58944;-53
2023/08/28 07:22:39;;;;;;;47.60;8.70;;;;;;;28.63;100.00;99934.31;109657;1251;73937;-53
2023/08/28 07:25:06;;;;;;;41.90;8.40;;;;;;;28.75;100.00;99958.02;109640;1251;63750;-54
2023/08/28 07:27:33;;;;;;;22.60;7.70;;;;;;;28.93;100.00;99952.58;109621;1251;72633;-54
2023/08/28 07:30:04;;;;;;;20.10;7.80;;;;;;;29.12;100.00;99938.45;109650;1251;59002;-54
2023/08/28 07:32:33;;;;;;;12.40;7.20;;;;;;;29.28;100.00;99942.06;109637;1251;59069;-52
2023/08/28 07:35:00;;;;;;;21.90;7.20;;;;;;;29.33;100.00;99970.46;109649;1251;73820;-53
2023/08/28 07:37:30;;;;;;;15.00;7.60;;;;;;;29.44;100.00;99997.05;109707;1251;64645;-53
2023/08/28 07:39:56;;;;;;;14.00;7.30;;;;;;;29.61;100.00;100009.11;109659;1251;71704;-54
2023/08/28 07:42:23;;;;;;;17.90;6.60;;;;;;;29.85;100.00;100006.48;109630;1251;59740;-53
2023/08/28 07:44:52;;;;;;;12.20;6.70;;;;;;;30.12;100.00;99989.58;109594;1251;60076;-54
2023/08/28 07:47:19;;;;;;;16.50;6.80;;;;;;;30.30;100.00;99997.67;109666;1251;73101;-53
2023/08/28 07:49:45;;;;;;;9.30;6.00;;;;;;;30.53;100.00;100011.95;109687;1251;63636;-54
2023/08/28 07:52:12;;;;;;;12.50;6.30;;;;;;;30.73;100.00;100015.64;109667;1251;72675;-54
2023/08/28 07:54:39;;;;;;;8.80;5.40;;;;;;;30.91;100.00;100006.33;109590;1251;58850;-54
2023/08/28 07:57:06;;;;;;;11.10;5.60;;;;;;;31.14;99.81;100004.36;109717;1251;58720;-53
2023/08/28 07:59:33;;;;;;;10.20;5.30;;;;;;;31.38;98.21;100009.22;109615;1251;72514;-54
2023/08/28 08:01:59;;;;;;;9.40;5.30;;;;;;;31.62;90.83;99996.20;109719;1251;64376;-53
2023/08/28 08:04:26;;;;;;;10.10;4.90;;;;;;;31.84;78.88;99939.43;109652;1251;71403;-54
2023/08/28 08:10:51;;;;;;;24.20;5.10;;;;;;;32.20;68.91;99889.32;103897;1282;615623;-53
2023/08/28 08:13:18;;;;;;;12.50;5.40;;;;;;;32.33;67.50;99891.86;105126;1268;59373;-53
2023/08/28 08:15:46;;;;;;;10.20;5.10;;;;;;;32.47;66.08;99882.35;105069;1268;59319;-51
2023/08/28 08:18:13;;;;;;;8.20;4.80;;;;;;;32.59;64.81;99871.11;105066;1266;72088;-53
2023/08/28 08:20:40;;;;;;;21.30;5.40;;;;;;;32.73;63.83;99867.27;105076;1268;64745;-52
2023/08/28 08:23:07;;;;;;;22.30;6.20;;;;;;;32.91;62.88;99856.52;104504;1268;803375;-53
2023/08/28 08:25:34;;;;;;;17.70;5.10;;;;;;;33.07;60.90;99796.19;105197;1265;60413;-52
2023/08/28 08:28:05;;;;;;;65.40;6.70;;;;;;;33.14;62.47;99875.34;105661;1259;60244;-52
2023/08/28 08:30:32;;;;;;;19.00;5.60;;;;;;;33.27;60.38;99798.88;105632;1258;71191;-54
2023/08/28 08:32:59;;;;;;;16.60;5.30;;;;;;;33.30;61.12;99851.89;105657;1259;64638;-52
2023/08/28 08:35:28;;;;;;;14.40;5.30;;;;;;;33.33;62.38;99885.48;105634;1259;71271;-54
2023/08/28 08:37:55;;;;;;;13.80;5.00;;;;;;;33.44;61.24;99855.54;105665;1262;60587;-51
2023/08/28 08:40:26;;;;;;;12.30;5.00;;;;;;;33.52;60.41;99830.04;105686;1256;60555;-52
2023/08/28 08:42:56;;;;;;;8.70;5.00;;;;;;;33.45;59.04;99789.01;105639;1259;73085;-53
2023/08/28 08:45:28;;;;;;;8.00;4.50;;;;;;;33.28;58.16;99771.38;105668;1259;65170;-54
2023/08/28 08:47:57;;;;;;;9.90;4.50;;;;;;;33.15;58.10;99784.75;105631;1259;72831;-54
2023/08/28 08:50:26;;;;;;;13.80;4.50;;;;;;;33.12;56.05;99694.55;105653;1256;59641;-54
2023/08/28 08:52:55;;;;;;;14.50;5.80;;;;;;;33.12;55.78;99707.05;105648;1257;60296;-51
2023/08/28 08:56:00;;;;;;;9.20;4.10;;;;;;;33.10;55.88;99732.23;105669;1259;71829;-54
2023/08/28 08:58:27;;;;;;;7.30;4.00;;;;;;;33.07;53.21;99549.60;105218;1266;64683;-53
2023/08/28 09:00:54;;;;;;;7.50;4.00;;;;;;;33.01;53.25;99582.76;105503;1257;72565;-54
2023/08/28 09:03:21;;;;;;;5.50;3.80;;;;;;;33.04;50.72;99381.56;105493;1262;60414;-54
2023/08/28 09:05:49;;;;;;;6.10;3.90;;;;;;;32.94;51.62;99488.94;105681;1257;60219;-51
2023/08/28 09:08:16;;;;;;;8.10;4.20;;;;;;;32.87;53.26;99670.56;105627;1256;73114;-53
2023/08/28 09:10:45;;;;;;;9.10;4.90;;;;;;;32.89;52.81;99633.83;105663;1262;64431;-53
2023/08/28 09:13:12;;;;;;;4.80;3.80;;;;;;;32.83;52.71;99635.82;105678;1256;71426;-52
2023/08/28 09:15:39;;;;;;;4.80;3.90;;;;;;;32.74;53.91;99744.09;105604;1259;60377;-53
2023/08/28 09:18:07;;;;;;;7.20;4.30;;;;;;;32.75;53.33;99701.89;105636;1257;60288;-54
2023/08/28 09:20:34;;;;;;;11.10;4.70;;;;;;;32.74;52.91;99655.33;105633;1256;73004;-54
2023/08/28 09:23:01;;;;;;;12.20;4.60;;;;;;;32.78;54.44;99786.48;105648;1260;65040;-56
2023/08/28 09:25:28;;;;;;;11.40;4.80;;;;;;;32.89;54.80;99795.75;105616;1257;72956;-54
2023/08/28 09:27:56;;;;;;;7.30;4.50;;;;;;;33.09;54.31;99738.40;105650;1260;60351;-55
2023/08/28 09:30:28;;;;;;;16.50;4.80;;;;;;;33.38;54.33;99735.48;105642;1256;60190;-53
2023/08/28 09:33:04;;;;;;;11.30;4.70;;;;;;;33.54;53.24;99660.39;105660;1258;73081;-52
2023/08/28 09:35:40;;;;;;;6.30;4.80;;;;;;;33.58;52.51;99601.86;105645;1257;63090;-54
2023/08/28 09:38:08;;;;;;;9.20;4.30;;;;;;;33.49;52.72;99634.39;105593;1257;72820;-54
2023/08/28 09:40:37;;;;;;;20.00;5.50;;;;;;;33.52;53.26;99685.42;105636;1262;60000;-52
2023/08/28 09:43:24;;;;;;;5.30;4.70;;;;;;;33.64;51.41;99515.16;105669;1257;60250;-54
2023/08/28 09:45:53;;;;;;;6.50;4.40;;;;;;;33.61;52.92;99662.54;105585;1259;73169;-53
2023/08/28 09:48:21;;;;;;;8.20;4.70;;;;;;;33.62;53.00;99680.45;105532;1263;64745;-52
2023/08/28 09:50:48;;;;;;;6.70;4.10;;;;;;;33.67;51.60;99531.76;105487;1257;72505;-54
2023/08/28 09:53:15;;;;;;;5.00;4.40;;;;;;;33.81;51.08;99485.84;105484;1262;60643;-53
2023/08/28 09:55:46;;;;;;;9.10;4.80;;;;;;;33.95;50.69;99458.08;105654;1257;60154;-52
2023/08/28 09:58:13;;;;;;;12.50;4.70;;;;;;;33.92;50.49;99458.15;105599;1260;73534;-53
2023/08/28 10:00:40;;;;;;;10.30;4.60;;;;;;;33.92;51.75;99582.11;105718;1259;64528;-52
2023/08/28 10:03:11;;;;;;;6.50;4.60;;;;;;;34.03;52.09;99614.70;105655;1257;72608;-53
2023/08/28 10:05:40;;;;;;;8.00;4.60;;;;;;;34.05;50.77;99499.59;105655;1260;60134;-53
2023/08/28 10:08:09;;;;;;;10.90;4.50;;;;;;;33.93;51.46;99585.42;105633;1257;60128;-53
2023/08/28 10:10:38;;;;;;;7.40;4.80;;;;;;;33.97;51.88;99625.54;105643;1257;72904;-54
2023/08/28 10:13:08;;;;;;;14.30;5.30;;;;;;;34.04;50.91;99537.96;105657;1259;64478;-54
2023/08/28 10:15:40;;;;;;;5.90;4.80;;;;;;;34.03;50.63;99516.77;105657;1256;72812;-52
2023/08/28 10:18:11;;;;;;;10.90;5.10;;;;;;;34.01;49.95;99464.10;105635;1259;60352;-54
2023/08/28 10:20:39;;;;;;;10.30;4.70;;;;;;;33.97;50.78;99539.27;105642;1259;60177;-54
2023/08/28 10:23:06;;;;;;;8.80;4.60;;;;;;;34.01;49.32;99401.48;105612;1257;72042;-54
2023/08/28 10:25:34;;;;;;;9.60;4.70;;;;;;;34.14;49.72;99454.80;105543;1262;64705;-54
2023/08/28 10:28:00;;;;;;;12.80;4.50;;;;;;;34.21;49.28;99411.50;105648;1260;72611;-54
2023/08/28 10:30:29;;;;;;;19.10;4.40;;;;;;;34.45;50.07;99492.98;105643;1259;60465;-54
2023/08/28 10:32:56;;;;;;;13.30;4.70;;;;;;;34.70;49.62;99442.31;105644;1260;60414;-54
2023/08/28 10:35:23;;;;;;;24.00;5.10;;;;;;;34.74;49.30;99387.71;105536;1262;72707;-53
2023/08/28 10:37:51;;;;;;;70.60;9.40;;;;;;;34.80;49.28;99397.44;105647;1260;64490;-55
2023/08/28 10:40:18;;;;;;;17.90;5.40;;;;;;;34.81;48.48;99322.66;105635;1260;72681;-55
2023/08/28 10:42:45;;;;;;;58.80;7.80;;;;;;;34.86;48.41;99306.76;105607;1261;60323;-53
2023/08/28 10:45:11;;;;;;;31.60;6.40;;;;;;;34.89;48.85;99371.19;105683;1257;60337;-53
2023/08/28 10:47:39;;;;;;;37.90;6.60;;;;;;;34.97;48.35;99323.84;105672;1259;72961;-53
2023/08/28 10:50:06;;;;;;;14.80;5.10;;;;;;;35.06;49.28;99437.33;105586;1260;64641;-54
2023/08/28 10:52:33;;;;;;;25.70;5.80;;;;;;;35.16;47.90;99297.03;105690;1259;72708;-56
2023/08/28 10:55:06;;;;;;;25.00;5.30;;;;;;;35.26;48.11;99299.98;105663;1260;60544;-53
2023/08/28 10:57:33;;;;;;;55.30;7.50;;;;;;;35.37;47.76;99291.32;105669;1259;60365;-54
2023/08/28 11:00:13;;;;;;;52.60;6.80;;;;;;;35.38;47.53;99262.95;105521;1257;72841;-54
2023/08/28 11:03:18;;;;;;;18.90;5.60;;;;;;;35.39;46.95;99197.81;105625;1257;64471;-53
2023/08/28 11:05:45;;;;;;;18.40;5.30;;;;;;;35.62;48.59;99375.02;105174;1267;72555;-52
2023/08/28 11:08:13;;;;;;;46.60;6.00;;;;;;;35.88;48.38;99366.96;105553;1269;60514;-53
2023/08/28 11:10:44;;;;;;;52.60;6.50;;;;;;;36.10;47.49;99270.29;105538;1262;60228;-53
2023/08/28 11:13:19;;;;;;;72.20;7.20;;;;;;;36.21;46.28;99124.79;105700;1259;72904;-54
2023/08/28 11:15:49;;;;;;;8.40;4.60;;;;;;;36.10;46.19;99118.80;105656;1256;63306;-57